Time;durP1;ratioP1;P1;durP2;ratioP2;P2;SDS_P1;SDS_P2;PMS_P1;PMS_P2;Temp;Humidity;BMP_temperature;BMP_pressure;BME280_temperature;BME280_humidity;BME280_pressure;Samples;Min_cycle;Max_cycle;Signal;HPM_P1;HPM_P2
2021/11/19 00:04:50;;;;;;;11.80;9.50;;;;;;;7.34;83.30;100556.98;215679;1320;139064;-75
2021/11/19 00:09:52;;;;;;;11.50;7.20;;;;;;;7.19;85.14;100544.08;215728;1320;138845;-75
2021/11/19 00:14:54;;;;;;;13.20;9.00;;;;;;;7.10;86.00;100541.33;213568;1322;138584;-76
2021/11/19 00:19:55;;;;;;;12.10;7.70;;;;;;;6.96;87.28;100530.21;215068;1320;142149;-75
2021/11/19 00:24:57;;;;;;;10.10;7.70;;;;;;;6.90;88.25;100530.33;215736;1312;138905;-76
2021/11/19 00:29:59;;;;;;;13.90;8.20;;;;;;;6.86;88.55;100523.34;215242;1320;138946;-74
2021/11/19 00:35:01;;;;;;;12.60;8.30;;;;;;;6.86;88.69;100530.31;215831;1320;199275;-73
2021/11/19 00:40:07;;;;;;;12.70;7.50;;;;;;;6.91;88.38;100509.12;214611;1324;139074;-69
2021/11/19 00:45:14;;;;;;;7.40;6.60;;;;;;;6.94;87.82;100514.45;215969;1325;138892;-77
2021/11/19 00:50:23;;;;;;;7.90;6.90;;;;;;;6.94;88.44;100496.05;214427;1322;139129;-74
2021/11/19 00:55:27;;;;;;;9.30;6.50;;;;;;;6.88;89.08;100498.25;215522;1325;139430;-75
2021/11/19 01:00:45;;;;;;;9.30;7.00;;;;;;;6.82;89.61;100491.22;215650;1319;138955;-75
2021/11/19 01:05:55;;;;;;;7.40;5.80;;;;;;;6.79;90.12;100486.27;215740;1319;139853;-75
2021/11/19 01:11:12;;;;;;;9.40;7.50;;;;;;;6.77;90.55;100493.27;215851;1319;138754;-71
2021/11/19 01:16:32;;;;;;;8.30;6.40;;;;;;;6.73;91.40;100473.41;213509;1312;137785;-74
2021/11/19 01:21:49;;;;;;;6.80;6.20;;;;;;;6.63;92.27;100472.47;213382;1322;138352;-75
2021/11/19 01:26:51;;;;;;;6.70;6.10;;;;;;;6.56;93.25;100464.17;215628;1312;138853;-73
2021/11/19 01:32:00;;;;;;;8.30;6.10;;;;;;;6.60;93.11;100458.60;215890;1319;137626;-73
2021/11/19 01:37:10;;;;;;;6.30;5.70;;;;;;;6.65;92.39;100464.15;214366;1322;139615;-74
2021/11/19 01:42:35;;;;;;;6.20;5.60;;;;;;;6.64;92.57;100452.45;214750;1319;139041;-77
2021/11/19 01:47:46;;;;;;;6.30;5.00;;;;;;;6.70;92.36;100456.02;215813;1320;139014;-74
2021/11/19 01:52:55;;;;;;;5.70;5.20;;;;;;;6.70;92.39;100454.48;213863;1325;137801;-75
2021/11/19 01:58:23;;;;;;;6.10;5.20;;;;;;;6.74;91.87;100447.59;215259;1319;137866;-74
2021/11/19 02:03:28;;;;;;;7.00;5.10;;;;;;;6.76;91.78;100439.92;214019;1323;138463;-74
2021/11/19 02:08:40;;;;;;;5.20;4.70;;;;;;;6.75;92.20;100432.67;214922;1320;138496;-76
2021/11/19 02:14:08;;;;;;;5.70;5.00;;;;;;;6.77;92.02;100436.48;215744;1319;138464;-74
2021/11/19 02:19:28;;;;;;;4.40;4.00;;;;;;;6.76;92.41;100427.67;216193;1319;138410;-76
2021/11/19 02:24:43;;;;;;;6.30;5.80;;;;;;;6.78;92.31;100441.18;215717;1322;137630;-76
2021/11/19 02:30:13;;;;;;;5.00;4.60;;;;;;;6.77;92.44;100424.11;213729;1328;139762;-76
2021/11/19 02:35:31;;;;;;;5.60;5.00;;;;;;;6.80;92.67;100425.27;213206;1327;138632;-74
2021/11/19 02:40:42;;;;;;;5.20;4.80;;;;;;;6.79;92.52;100422.48;216015;1320;139013;-74
2021/11/19 02:45:51;;;;;;;5.00;4.60;;;;;;;6.75;93.31;100437.02;214782;1322;139154;-74
2021/11/19 02:50:55;;;;;;;4.60;4.20;;;;;;;6.75;93.61;100426.04;215636;1322;139244;-75
2021/11/19 02:55:59;;;;;;;5.30;3.80;;;;;;;6.71;94.13;100431.91;216086;1320;139138;-76
2021/11/19 03:06:10;;;;;;;4.50;4.10;;;;;;;6.69;94.83;100409.02;213643;1323;138113;-76
2021/11/19 03:11:18;;;;;;;4.00;3.70;;;;;;;6.68;95.31;100404.02;213956;1326;108881;-77
2021/11/19 03:16:23;;;;;;;3.50;3.20;;;;;;;6.68;95.43;100407.49;214081;1314;138895;-74
2021/11/19 03:21:25;;;;;;;4.40;3.40;;;;;;;6.71;95.25;100413.71;215858;1319;139112;-74
2021/11/19 03:26:32;;;;;;;3.30;3.00;;;;;;;6.71;95.78;100420.21;215818;1322;138843;-75
2021/11/19 03:31:41;;;;;;;4.80;4.30;;;;;;;6.70;95.80;100422.73;215754;1322;138480;-75
2021/11/19 03:36:50;;;;;;;4.00;3.70;;;;;;;6.76;95.63;100420.13;215706;1320;138937;-75
2021/11/19 03:42:10;;;;;;;4.10;3.00;;;;;;;6.78;95.85;100423.50;214935;1321;138534;-75
2021/11/19 03:47:23;;;;;;;3.90;3.50;;;;;;;6.77;95.94;100415.66;213442;1325;138628;-75
2021/11/19 03:52:38;;;;;;;3.20;3.00;;;;;;;6.82;96.10;100417.02;215713;1325;140210;-76
2021/11/19 03:57:44;;;;;;;3.80;3.50;;;;;;;6.79;96.20;100424.91;215774;1322;139549;-76
2021/11/19 04:02:52;;;;;;;4.00;3.70;;;;;;;6.82;96.39;100421.35;213388;1321;139198;-76
2021/11/19 04:07:53;;;;;;;4.00;3.70;;;;;;;6.82;96.75;100432.42;213980;1329;138839;-74
2021/11/19 04:12:57;;;;;;;3.50;3.30;;;;;;;6.83;96.91;100436.33;214328;1323;138877;-75
2021/11/19 04:18:03;;;;;;;4.30;3.90;;;;;;;6.86;96.82;100438.92;214715;1312;138580;-74
2021/11/19 04:23:08;;;;;;;4.50;4.10;;;;;;;6.85;97.36;100439.85;215597;1322;139042;-75
2021/11/19 04:28:14;;;;;;;4.20;3.90;;;;;;;6.86;97.63;100438.72;214669;1322;138394;-74
2021/11/19 04:33:18;;;;;;;4.20;3.90;;;;;;;6.86;97.38;100448.16;214052;1309;138872;-73
2021/11/19 04:38:21;;;;;;;4.40;4.10;;;;;;;6.89;97.91;100439.18;214712;1321;139013;-74
2021/11/19 04:43:25;;;;;;;4.80;4.40;;;;;;;6.94;97.84;100438.91;215605;1321;138819;-73
2021/11/19 04:48:34;;;;;;;5.30;4.90;;;;;;;6.95;98.07;100426.59;215071;1322;138796;-74
2021/11/19 04:53:36;;;;;;;5.30;4.90;;;;;;;7.00;98.19;100422.52;215519;1320;138925;-74
2021/11/19 04:58:42;;;;;;;5.60;5.10;;;;;;;7.05;98.11;100424.70;215568;1320;139014;-75
2021/11/19 05:03:44;;;;;;;5.40;5.00;;;;;;;7.04;98.26;100420.59;213604;1312;139257;-73
2021/11/19 05:08:46;;;;;;;6.40;5.80;;;;;;;7.09;98.30;100425.27;215901;1318;139303;-72
2021/11/19 05:13:48;;;;;;;7.50;6.80;;;;;;;7.15;98.38;100429.64;215544;1323;139155;-72
2021/11/19 05:18:50;;;;;;;8.30;7.50;;;;;;;7.15;98.28;100431.77;215753;1319;138559;-73
2021/11/19 05:23:51;;;;;;;6.40;5.80;;;;;;;7.18;98.39;100427.30;216102;1319;138822;-72
2021/11/19 05:43:05;;;;;;;7.20;6.60;;;;;;;7.33;98.03;100437.19;206171;1345;635155;-72
2021/11/19 05:48:10;;;;;;;7.30;6.60;;;;;;;7.34;97.93;100447.79;207732;1332;138164;-75
2021/11/19 05:53:12;;;;;;;6.70;6.10;;;;;;;7.36;97.93;100440.12;209137;1322;206542;-74
2021/11/19 05:58:16;;;;;;;6.00;5.50;;;;;;;7.39;98.24;100442.46;207486;1331;138250;-75
2021/11/19 06:03:19;;;;;;;6.90;6.40;;;;;;;7.40;98.32;100432.42;209208;1322;138699;-74
2021/11/19 06:08:21;;;;;;;5.60;5.20;;;;;;;7.45;98.31;100421.32;208831;1331;138896;-73
2021/11/19 06:19:00;;;;;;;7.20;6.70;;;;;;;7.51;98.49;100416.18;209033;1332;138813;-73
2021/11/19 06:24:20;;;;;;;7.90;7.20;;;;;;;7.50;98.77;100418.01;207182;1332;139502;-75
2021/11/19 06:29:30;;;;;;;7.70;7.10;;;;;;;7.52;99.36;100425.02;209631;1322;138547;-75
2021/11/19 06:34:39;;;;;;;7.70;7.10;;;;;;;7.54;99.42;100435.94;215509;1313;138628;-76
2021/11/19 06:39:47;;;;;;;6.90;6.30;;;;;;;7.58;99.74;100442.94;214595;1325;138202;-74
2021/11/19 06:44:55;;;;;;;7.50;6.90;;;;;;;7.65;99.83;100458.68;213017;1329;138215;-75
2021/11/19 06:49:57;;;;;;;6.10;5.50;;;;;;;7.68;99.88;100465.63;214315;1323;138350;-75
2021/11/19 06:59:12;;;;;;;8.50;7.80;;;;;;;7.76;99.81;100473.54;206355;1349;636641;-74
2021/11/19 07:04:13;;;;;;;8.40;7.70;;;;;;;7.75;99.93;100460.02;209470;1323;138567;-74
2021/11/19 07:09:17;;;;;;;10.10;9.30;;;;;;;7.80;99.68;100460.70;211190;1320;300541;-73
2021/11/19 07:14:20;;;;;;;8.30;7.50;;;;;;;7.88;99.25;100462.98;212062;1311;138381;-73
2021/11/19 07:19:28;;;;;;;9.60;8.70;;;;;;;7.90;99.29;100465.45;210300;1320;141960;-74
2021/11/19 07:24:34;;;;;;;8.90;8.20;;;;;;;7.93;99.44;100471.86;211596;1310;138348;-69
2021/11/19 07:29:35;;;;;;;;;;;;;;;7.92;99.67;100480.21;210670;1309;138493;-73
2021/11/19 07:34:38;;;;;;;7.70;7.00;;;;;;;7.92;99.64;100488.73;210931;1307;124801;-74
2021/11/19 07:39:40;;;;;;;8.80;8.10;;;;;;;7.95;99.70;100493.25;210305;1323;138574;-74
2021/11/19 07:44:43;;;;;;;7.90;7.30;;;;;;;7.99;99.81;100495.36;209991;1319;138595;-74
2021/11/19 07:49:44;;;;;;;10.00;9.20;;;;;;;8.02;99.79;100492.63;209657;1311;138907;-74
2021/11/19 07:54:49;;;;;;;9.60;8.80;;;;;;;8.06;99.86;100490.48;210114;1318;138789;-75
2021/11/19 07:59:56;;;;;;;8.50;7.70;;;;;;;8.09;99.89;100492.17;210203;1319;139388;-74
2021/11/19 08:04:58;;;;;;;8.10;7.50;;;;;;;8.13;99.93;100489.27;211272;1319;138388;-74
2021/11/19 08:10:01;;;;;;;8.00;7.30;;;;;;;8.18;100.00;100488.97;211421;1319;138775;-75
2021/11/19 08:15:10;;;;;;;7.30;6.70;;;;;;;8.24;99.94;100493.71;212562;1320;138629;-75
2021/11/19 08:20:28;;;;;;;7.80;7.10;;;;;;;8.27;99.85;100495.49;210628;1319;139178;-73
2021/11/19 08:25:29;;;;;;;8.00;7.40;;;;;;;8.30;99.93;100493.48;211949;1307;138646;-74
2021/11/19 08:30:39;;;;;;;6.80;6.30;;;;;;;8.33;100.00;100485.48;210108;1317;138641;-73
2021/11/19 08:35:46;;;;;;;8.00;7.30;;;;;;;8.35;100.00;100490.94;212960;1306;137754;-74
2021/11/19 08:40:54;;;;;;;6.90;6.30;;;;;;;8.38;99.99;100494.27;213102;1317;138657;-74
2021/11/19 08:46:08;;;;;;;7.10;6.60;;;;;;;8.39;100.00;100496.05;211072;1316;138819;-72
2021/11/19 08:51:14;;;;;;;7.40;6.80;;;;;;;8.45;100.00;100498.30;210418;1320;139544;-72
2021/11/19 08:56:24;;;;;;;7.50;6.90;;;;;;;8.50;100.00;100483.86;210335;1318;139268;-75
2021/11/19 09:01:32;;;;;;;6.80;6.20;;;;;;;8.53;100.00;100475.13;210632;1320;139034;-75
2021/11/19 09:06:35;;;;;;;7.40;6.80;;;;;;;8.56;100.00;100488.41;211007;1320;138341;-74
2021/11/19 09:11:38;;;;;;;7.70;6.90;;;;;;;8.57;100.00;100492.33;211492;1306;140442;-73
2021/11/19 09:17:02;;;;;;;7.20;6.60;;;;;;;8.59;100.00;100497.96;210827;1319;138318;-74
2021/11/19 09:22:13;;;;;;;7.70;6.60;;;;;;;8.62;100.00;100491.88;210442;1317;138544;-75
2021/11/19 09:27:23;;;;;;;5.50;5.10;;;;;;;8.66;100.00;100491.94;210353;1316;139256;-76
2021/11/19 09:32:31;;;;;;;6.10;5.60;;;;;;;8.67;100.00;100490.20;211920;1317;138371;-72
2021/11/19 09:37:34;;;;;;;8.40;7.60;;;;;;;8.70;100.00;100494.49;210437;1316;138887;-67
2021/11/19 09:42:42;;;;;;;7.50;6.90;;;;;;;8.71;100.00;100494.58;210078;1317;138891;-75
2021/11/19 09:47:59;;;;;;;6.80;6.20;;;;;;;8.73;100.00;100483.90;210983;1317;138590;-73
2021/11/19 09:53:38;;;;;;;12.40;11.30;;;;;;;8.77;100.00;100472.78;210787;1317;138827;-73
2021/11/19 09:59:08;;;;;;;6.10;5.70;;;;;;;8.82;100.00;100474.96;211677;1317;139508;-74
2021/11/19 10:04:29;;;;;;;5.80;5.40;;;;;;;8.85;100.00;100460.81;211347;1317;139243;-74
2021/11/19 10:09:51;;;;;;;12.60;11.60;;;;;;;8.90;100.00;100460.90;210966;1316;138631;-75
2021/11/19 10:15:10;;;;;;;9.40;8.60;;;;;;;8.99;100.00;100450.54;210662;1311;138975;-73
2021/11/19 10:20:22;;;;;;;5.10;4.70;;;;;;;9.03;100.00;100441.89;211027;1319;138650;-71
2021/11/19 10:25:40;;;;;;;5.20;4.80;;;;;;;9.07;100.00;100444.38;209650;1324;138690;-73
2021/11/19 10:30:54;;;;;;;4.80;4.40;;;;;;;9.10;100.00;100439.38;210705;1319;138548;-75
2021/11/19 10:36:12;;;;;;;4.90;4.50;;;;;;;9.16;100.00;100450.99;209671;1320;138722;-74
2021/11/19 10:42:00;;;;;;;4.40;4.10;;;;;;;9.18;100.00;100449.75;211271;1307;138708;-75
2021/11/19 10:47:18;;;;;;;5.70;5.30;;;;;;;9.17;100.00;100436.43;210822;1309;138959;-74
2021/11/19 10:52:47;;;;;;;6.40;5.90;;;;;;;9.18;100.00;100427.72;210405;1320;139581;-74
2021/11/19 10:58:28;;;;;;;6.40;5.90;;;;;;;9.23;100.00;100416.39;210957;1306;139514;-74
2021/11/19 11:03:38;;;;;;;7.20;6.60;;;;;;;9.22;100.00;100413.13;211672;1325;140302;-74
2021/11/19 11:09:02;;;;;;;15.10;13.80;;;;;;;9.24;100.00;100410.11;209898;1322;139254;-75
2021/11/19 11:14:07;;;;;;;5.90;5.30;;;;;;;9.26;100.00;100408.13;211006;1312;138867;-73
2021/11/19 11:19:09;;;;;;;;;;;;;;;9.30;100.00;100404.73;212267;1315;138625;-74
2021/11/19 11:24:11;;;;;;;7.40;6.70;;;;;;;9.35;100.00;100401.20;211697;1308;125134;-72
2021/11/19 11:29:17;;;;;;;7.30;6.70;;;;;;;9.42;100.00;100400.20;210851;1317;139007;-75
2021/11/19 11:34:27;;;;;;;6.70;6.20;;;;;;;9.46;100.00;100397.69;210561;1317;139052;-74
2021/11/19 11:39:37;;;;;;;6.90;6.20;;;;;;;9.50;100.00;100393.61;211212;1317;138877;-73
2021/11/19 11:50:19;;;;;;;7.70;7.00;;;;;;;9.64;100.00;100393.98;211722;1306;139025;-74
2021/11/19 11:55:37;;;;;;;7.40;6.80;;;;;;;9.70;100.00;100396.92;211200;1317;139099;-75
2021/11/19 12:01:02;;;;;;;6.00;5.50;;;;;;;9.75;100.00;100393.26;210839;1317;139268;-77
2021/11/19 12:06:19;;;;;;;7.40;6.70;;;;;;;9.76;100.00;100387.79;210702;1317;138749;-75
2021/11/19 12:11:39;;;;;;;6.30;5.80;;;;;;;9.75;100.00;100396.11;210644;1319;138736;-73
2021/11/19 12:17:05;;;;;;;5.30;5.00;;;;;;;9.76;100.00;100390.53;210578;1319;138929;-74
2021/11/19 12:22:30;;;;;;;5.50;5.00;;;;;;;9.77;100.00;100381.86;210585;1320;138892;-74
2021/11/19 12:27:43;;;;;;;5.30;4.90;;;;;;;9.80;100.00;100377.89;210083;1322;139037;-73
2021/11/19 12:33:11;;;;;;;4.90;4.50;;;;;;;9.81;100.00;100377.88;209211;1321;139128;-73
2021/11/19 12:38:30;;;;;;;5.40;4.90;;;;;;;9.83;100.00;100369.25;210541;1320;138144;-75
2021/11/19 12:43:42;;;;;;;5.40;5.00;;;;;;;9.89;99.96;100368.88;209399;1320;137556;-68
2021/11/19 12:49:13;;;;;;;5.00;4.60;;;;;;;9.93;99.61;100353.48;210061;1322;138713;-74
2021/11/19 12:54:26;;;;;;;6.40;5.90;;;;;;;9.96;99.21;100355.66;209924;1319;138560;-77
2021/11/19 12:59:52;;;;;;;6.10;5.50;;;;;;;10.00;99.14;100365.86;209194;1325;138700;-73
2021/11/19 13:05:13;;;;;;;5.90;5.50;;;;;;;10.04;98.91;100366.89;209789;1322;139114;-75
2021/11/19 13:10:22;;;;;;;6.20;5.70;;;;;;;10.07;98.82;100371.73;210479;1309;140645;-77
2021/11/19 13:15:35;;;;;;;5.80;5.40;;;;;;;10.09;98.71;100371.05;211376;1319;138527;-76
2021/11/19 13:21:00;;;;;;;7.00;6.40;;;;;;;10.06;98.98;100370.60;211826;1310;139249;-67
2021/11/19 13:26:16;;;;;;;7.40;6.80;;;;;;;10.06;99.11;100382.02;210452;1320;139394;-74
2021/11/19 13:31:24;;;;;;;7.80;7.20;;;;;;;10.05;99.24;100380.44;210911;1320;138846;-76
2021/11/19 13:36:48;;;;;;;8.10;7.40;;;;;;;10.05;99.64;100377.52;210791;1310;139548;-78
2021/11/19 13:42:08;;;;;;;8.20;7.50;;;;;;;10.05;99.90;100382.62;210279;1320;138536;-74
2021/11/19 13:47:33;;;;;;;7.60;7.00;;;;;;;10.04;100.00;100376.36;210539;1322;139051;-78
2021/11/19 13:53:10;;;;;;;9.40;8.50;;;;;;;10.06;100.00;100377.41;210758;1319;139103;-76
2021/11/19 13:58:26;;;;;;;8.90;8.20;;;;;;;10.09;100.00;100375.92;210829;1319;139083;-75
2021/11/19 14:03:32;;;;;;;7.40;6.90;;;;;;;10.10;100.00;100382.52;211837;1309;138992;-74
2021/11/19 14:08:56;;;;;;;8.20;7.40;;;;;;;10.14;100.00;100378.80;212322;1312;139026;-74
2021/11/19 14:13:59;;;;;;;6.60;6.10;;;;;;;10.14;100.00;100381.41;210632;1322;139619;-75
2021/11/19 14:19:13;;;;;;;8.80;8.10;;;;;;;10.15;100.00;100378.13;210200;1319;138614;-75
2021/11/19 14:24:33;;;;;;;8.60;7.70;;;;;;;10.20;99.88;100382.59;211789;1320;139350;-76
2021/11/19 14:30:03;;;;;;;8.50;7.90;;;;;;;10.20;99.84;100382.92;211479;1312;139798;-76
2021/11/19 14:35:20;;;;;;;9.10;8.40;;;;;;;10.21;99.78;100388.30;211146;1322;138966;-75
2021/11/19 14:40:28;;;;;;;9.30;8.40;;;;;;;10.23;99.64;100385.60;210848;1322;138591;-75
2021/11/19 14:45:38;;;;;;;7.70;7.00;;;;;;;10.26;99.38;100394.30;209943;1322;139169;-74
2021/11/19 14:51:29;;;;;;;9.80;9.00;;;;;;;10.32;98.95;100388.31;209806;1322;138913;-74
2021/11/19 14:56:50;;;;;;;10.40;9.50;;;;;;;10.33;98.79;100384.69;210698;1322;138617;-74
2021/11/19 15:01:52;;;;;;;9.70;8.90;;;;;;;10.38;98.23;100376.23;210894;1322;139479;-75
2021/11/19 15:07:09;;;;;;;10.50;9.70;;;;;;;10.38;98.07;100369.90;210628;1322;138940;-77
2021/11/19 15:12:22;;;;;;;9.00;8.20;;;;;;;10.39;97.91;100364.88;209617;1322;1050233;-77
2021/11/19 15:17:32;;;;;;;10.50;9.50;;;;;;;10.39;97.78;100358.39;209589;1322;139125;-75
2021/11/19 15:22:37;;;;;;;10.40;9.40;;;;;;;10.39;97.83;100350.27;210197;1323;138509;-76
2021/11/19 15:28:08;;;;;;;10.20;9.30;;;;;;;10.40;97.55;100357.41;210732;1322;139417;-74
2021/11/19 15:33:14;;;;;;;10.30;9.40;;;;;;;10.38;97.41;100356.87;210036;1321;139188;-78
2021/11/19 15:38:41;;;;;;;10.40;9.40;;;;;;;10.39;97.45;100350.05;209780;1324;139626;-73
2021/11/19 15:43:46;;;;;;;11.10;10.10;;;;;;;10.41;96.96;100350.88;209822;1322;139754;-77
2021/11/19 15:48:54;;;;;;;12.10;11.10;;;;;;;10.40;96.78;100366.52;210341;1322;139903;-74
2021/11/19 15:54:27;;;;;;;13.50;12.20;;;;;;;10.37;96.99;100374.05;209946;1322;139523;-73
2021/11/19 15:59:46;;;;;;;10.60;9.60;;;;;;;10.33;97.24;100368.88;209909;1322;139401;-76
2021/11/19 16:05:21;;;;;;;11.30;10.40;;;;;;;10.27;97.62;100368.50;209681;1324;139957;-74
2021/11/19 16:10:45;;;;;;;12.10;11.00;;;;;;;10.23;98.02;100367.73;210426;1324;139233;-76
2021/11/19 16:16:14;;;;;;;12.70;11.50;;;;;;;10.17;98.50;100361.40;210934;1322;139571;-76
2021/11/19 16:21:21;;;;;;;10.50;9.60;;;;;;;10.12;98.79;100356.21;213411;1307;138960;-77
2021/11/19 16:26:26;;;;;;;11.40;10.30;;;;;;;10.08;99.15;100356.14;215030;1318;139032;-74
2021/11/19 16:31:29;;;;;;;12.60;11.30;;;;;;;10.09;99.14;100351.13;215055;1319;139508;-74
2021/11/19 16:36:34;;;;;;;11.10;10.00;;;;;;;10.07;99.33;100345.86;216219;1319;139882;-76
2021/11/19 16:41:41;;;;;;;12.10;11.00;;;;;;;10.06;99.28;100361.02;215024;1323;139487;-74
2021/11/19 16:46:44;;;;;;;10.70;9.60;;;;;;;10.08;99.43;100356.46;216115;1320;139477;-74
2021/11/19 16:52:03;;;;;;;11.80;10.80;;;;;;;10.09;99.44;100356.41;215398;1323;138946;-67
2021/11/19 16:57:10;;;;;;;10.80;9.70;;;;;;;10.09;99.52;100357.98;213575;1310;141338;-76
2021/11/19 17:02:15;;;;;;;11.10;10.00;;;;;;;10.11;99.47;100352.14;214283;1310;138764;-74
2021/11/19 17:07:21;;;;;;;11.40;10.40;;;;;;;10.12;99.45;100351.91;215813;1319;139311;-76
2021/11/19 17:12:23;;;;;;;10.80;9.90;;;;;;;10.13;99.58;100351.63;215999;1326;139031;-75
2021/11/19 17:17:24;;;;;;;12.00;10.90;;;;;;;10.15;99.44;100349.83;215041;1325;139123;-76
2021/11/19 17:22:27;;;;;;;13.60;12.50;;;;;;;10.17;99.54;100360.54;213411;1329;139385;-75
2021/11/19 17:27:31;;;;;;;11.90;10.90;;;;;;;10.23;99.38;100359.35;215236;1327;139454;-76
2021/11/19 17:32:37;;;;;;;10.20;9.30;;;;;;;10.27;99.27;100357.95;214276;1326;139164;-74
2021/11/19 17:37:40;;;;;;;11.00;10.00;;;;;;;10.28;98.93;100360.11;215197;1322;139702;-76
2021/11/19 17:42:47;;;;;;;12.20;11.00;;;;;;;10.32;98.72;100358.36;215528;1327;140144;-76
2021/11/19 17:47:53;;;;;;;11.10;10.20;;;;;;;10.31;98.85;100353.86;214174;1321;139614;-79
2021/11/19 17:52:54;;;;;;;10.90;10.00;;;;;;;10.33;98.65;100349.23;214351;1328;139542;-75
2021/11/19 17:57:58;;;;;;;11.30;10.30;;;;;;;10.27;98.92;100344.89;215099;1322;139200;-73
2021/11/19 18:03:11;;;;;;;12.40;11.40;;;;;;;10.27;99.00;100331.61;214993;1325;139928;-75
2021/11/19 18:08:14;;;;;;;12.30;11.20;;;;;;;10.27;98.96;100325.06;215192;1325;139199;-79
2021/11/19 18:13:16;;;;;;;12.80;11.60;;;;;;;10.28;98.75;100309.30;214886;1323;139266;-76
2021/11/19 18:18:18;;;;;;;9.90;9.10;;;;;;;10.28;98.50;100305.75;215585;1322;139498;-74
2021/11/19 18:23:21;;;;;;;12.00;10.90;;;;;;;10.34;97.95;100316.95;214541;1321;138834;-73
2021/11/19 18:28:25;;;;;;;10.30;9.40;;;;;;;10.35;97.50;100297.80;215418;1328;139865;-76
2021/11/19 18:33:30;;;;;;;10.90;9.90;;;;;;;10.39;96.75;100297.39;215564;1321;139029;-76
2021/11/19 18:38:39;;;;;;;10.00;9.10;;;;;;;10.42;95.90;100297.09;214908;1324;139522;-73
2021/11/19 18:43:41;;;;;;;10.20;9.30;;;;;;;10.49;95.24;100286.04;215150;1325;138933;-76
2021/11/19 18:48:43;;;;;;;10.30;9.30;;;;;;;10.47;95.35;100286.45;215382;1322;139787;-75
2021/11/19 18:53:45;;;;;;;8.30;7.60;;;;;;;10.48;94.95;100277.84;214648;1322;140507;-75
2021/11/19 18:58:47;;;;;;;8.80;8.00;;;;;;;10.49;94.43;100274.55;215103;1322;139026;-76
2021/11/19 19:03:49;;;;;;;8.50;7.70;;;;;;;10.52;93.62;100275.29;215275;1321;138920;-61
2021/11/19 19:08:53;;;;;;;8.40;7.60;;;;;;;10.53;93.30;100283.27;215512;1316;138782;-73
2021/11/19 19:13:58;;;;;;;9.30;8.50;;;;;;;10.55;92.81;100272.02;213141;1326;139244;-75
2021/11/19 19:19:04;;;;;;;7.80;7.10;;;;;;;10.58;92.41;100270.17;214736;1323;138878;-79
2021/11/19 19:24:05;;;;;;;7.60;7.00;;;;;;;10.59;92.21;100279.06;214127;1323;139182;-76
2021/11/19 19:29:08;;;;;;;8.80;8.00;;;;;;;10.57;92.14;100287.91;215419;1322;139208;-75
2021/11/19 19:34:16;;;;;;;7.80;6.90;;;;;;;10.56;92.10;100290.94;215316;1320;138770;-76
2021/11/19 19:39:22;;;;;;;7.40;6.80;;;;;;;10.58;92.04;100280.25;214029;1323;138919;-75
2021/11/19 19:44:27;;;;;;;7.10;6.40;;;;;;;10.60;91.79;100286.89;213776;1323;139537;-75
2021/11/19 19:49:29;;;;;;;7.10;6.50;;;;;;;10.60;91.50;100284.27;213410;1326;140142;-74
2021/11/19 19:54:36;;;;;;;6.10;4.90;;;;;;;10.67;90.22;100285.56;215461;1320;139820;-74
2021/11/19 19:59:40;;;;;;;5.60;5.00;;;;;;;10.71;89.63;100292.06;215493;1316;138963;-78
2021/11/19 20:04:43;;;;;;;6.80;5.60;;;;;;;10.68;89.83;100288.36;213326;1326;138845;-76
2021/11/19 20:09:45;;;;;;;6.30;5.70;;;;;;;10.68;89.93;100310.20;215278;1323;138724;-75
2021/11/19 20:14:50;;;;;;;5.60;5.10;;;;;;;10.70;89.61;100297.27;215291;1318;139762;-74
2021/11/19 20:19:51;;;;;;;6.60;5.50;;;;;;;10.67;89.71;100308.52;215328;1317;139163;-75
2021/11/19 20:25:02;;;;;;;4.20;3.80;;;;;;;10.70;89.46;100298.23;213759;1322;139371;-75
2021/11/19 20:30:05;;;;;;;5.60;5.00;;;;;;;10.69;89.31;100304.80;214743;1322;138744;-74
2021/11/19 20:35:14;;;;;;;7.80;5.40;;;;;;;10.70;88.96;100296.54;215463;1322;138976;-75
2021/11/19 20:40:20;;;;;;;8.20;5.70;;;;;;;10.69;88.65;100295.42;213394;1326;139243;-76
2021/11/19 20:45:47;;;;;;;5.90;4.40;;;;;;;10.70;88.36;100303.98;215221;1323;140634;-75
2021/11/19 20:50:53;;;;;;;6.70;6.00;;;;;;;10.72;87.85;100283.04;212622;1332;139326;-73
2021/11/19 20:56:04;;;;;;;6.60;4.60;;;;;;;10.72;87.66;100283.36;215527;1319;139343;-77
2021/11/19 21:01:46;;;;;;;4.60;4.20;;;;;;;10.73;87.34;100279.59;215413;1320;139390;-75
2021/11/19 21:06:48;;;;;;;6.20;4.50;;;;;;;10.70;87.24;100260.95;215250;1318;138841;-77
2021/11/19 21:12:00;;;;;;;6.00;4.00;;;;;;;10.70;87.04;100272.62;213793;1325;138883;-74
2021/11/19 21:17:02;;;;;;;5.10;3.90;;;;;;;10.73;86.34;100283.78;215309;1319;138772;-74
2021/11/19 21:22:04;;;;;;;5.70;3.40;;;;;;;10.75;86.19;100283.23;215454;1318;139823;-75
2021/11/19 21:27:06;;;;;;;4.40;3.40;;;;;;;10.74;86.07;100271.46;215429;1316;137948;-74
2021/11/19 21:32:12;;;;;;;5.50;3.70;;;;;;;10.72;86.25;100280.70;215212;1321;137812;-75
2021/11/19 21:37:15;;;;;;;5.00;3.50;;;;;;;10.73;86.08;100288.90;213555;1323;137692;-74
2021/11/19 21:42:22;;;;;;;4.60;3.70;;;;;;;10.70;86.02;100284.26;214390;1320;139412;-75
2021/11/19 21:47:29;;;;;;;4.50;3.50;;;;;;;10.68;86.16;100294.45;214391;1319;138760;-75
2021/11/19 21:52:35;;;;;;;4.10;3.00;;;;;;;10.68;86.14;100305.08;213985;1322;139170;-75
2021/11/19 21:57:43;;;;;;;3.50;3.10;;;;;;;10.71;85.47;100297.88;214667;1322;139869;-78
2021/11/19 22:02:46;;;;;;;6.30;3.40;;;;;;;10.73;85.24;100288.50;212411;1330;138967;-76
2021/11/19 22:07:48;;;;;;;4.00;2.90;;;;;;;10.74;84.92;100288.05;214553;1322;139227;-74
2021/11/19 22:12:57;;;;;;;4.30;3.30;;;;;;;10.72;84.71;100267.45;214936;1324;139407;-74
2021/11/19 22:18:03;;;;;;;4.70;3.30;;;;;;;10.70;84.70;100263.30;215280;1321;138202;-75
2021/11/19 22:23:06;;;;;;;3.80;2.50;;;;;;;10.70;84.48;100254.82;214816;1322;139002;-78
2021/11/19 22:28:12;;;;;;;4.00;2.70;;;;;;;10.68;84.40;100266.45;214474;1322;139071;-73
2021/11/19 22:33:14;;;;;;;4.90;3.30;;;;;;;10.66;84.45;100266.29;215185;1311;139027;-74
2021/11/19 22:38:29;;;;;;;6.20;3.30;;;;;;;10.64;84.51;100259.52;216033;1319;139132;-73
2021/11/19 22:43:41;;;;;;;3.50;2.90;;;;;;;10.60;84.56;100259.35;215868;1322;138898;-75
2021/11/19 22:49:04;;;;;;;5.20;3.10;;;;;;;10.60;84.44;100250.06;215495;1310;138642;-75
2021/11/19 22:54:11;;;;;;;6.60;3.50;;;;;;;10.63;83.91;100256.79;215780;1320;139301;-74
2021/11/19 22:59:14;;;;;;;2.90;2.10;;;;;;;10.59;84.42;100255.11;215168;1315;139839;-75
2021/11/19 23:04:22;;;;;;;3.20;2.30;;;;;;;10.54;84.27;100251.45;216130;1318;139582;-75
2021/11/19 23:09:33;;;;;;;4.00;2.50;;;;;;;10.53;84.20;100242.20;214843;1318;1665498;-74
2021/11/19 23:14:35;;;;;;;5.20;3.00;;;;;;;10.53;84.09;100231.86;215384;1324;139391;-74
2021/11/19 23:19:40;;;;;;;3.10;2.60;;;;;;;10.51;84.02;100223.42;215195;1320;138705;-75
2021/11/19 23:24:47;;;;;;;4.90;2.80;;;;;;;10.48;84.14;100227.44;216171;1320;139278;-75
2021/11/19 23:30:02;;;;;;;6.30;2.80;;;;;;;10.43;84.17;100221.93;215210;1319;138568;-76
2021/11/19 23:35:31;;;;;;;5.00;2.40;;;;;;;10.43;83.97;100231.67;216317;1320;139154;-75
2021/11/19 23:40:39;;;;;;;3.50;2.70;;;;;;;10.39;84.13;100240.20;215718;1320;138729;-75
2021/11/19 23:45:52;;;;;;;5.00;3.30;;;;;;;10.35;84.43;100250.97;215827;1320;138541;-74
2021/11/19 23:50:55;;;;;;;5.50;2.80;;;;;;;10.36;84.46;100245.77;216114;1320;139140;-75
2021/11/19 23:56:01;;;;;;;7.30;2.70;;;;;;;10.34;83.89;100250.54;216169;1320;139439;-71
